GIBO2: Ft Gibson Lake, OK

Data processed at Wed May 22 2019 23:50


All information presented herein is the property of the government of the United States of America and may be revised or deleted at any time without prior notice.
Dissemination of this information without the expressed written consent of the Public Affairs Office, Tulsa District U.S. Army Corps of Engineers is strictly prohibited.
These data are gathered electronically and, as presented, have not undergone any form of quality control. These data are not guaranteed to be valid or correct.
Go to home page.
Go to station list.
Go to home page.

Upstream stations:

Downstream station:
Previous Day
Next Day
Current Day
    
SHEF ID:       GIBO2     Ft. Gibson Lake
STATION TYPE:  RESERVOIR
Flood Pool:  Bottom =   554.00, Top =   582.00

               PRECIP ELEVATION   STORAGE   TW-ELEV    INFLOW   RELEASE  AIR-TEMP  WIND-DIRWIND-SPEED REL-HUMID SOLAR-RAD   VOLTAGE  BAT-LOAD
                   in        ft     ac-ft        ft       cfs       cfs         F       deg       mph         %      W/m2      volt      volt
              Ccp-Rev   Ccp-Rev   Ccp-Rev   Ccp-Rev  Rev-Regi  Rev-Regi   Ccp-Rev   Ccp-Rev   Ccp-Rev   Ccp-Rev   Ccp-Rev   Ccp-Rev   Ccp-Rev
(US/Central)
05/22 00:00      0.00    580.33   1201738    508.55    133473     29272     67.68    152.80     10.20     70.42      0.00     13.55     12.96
05/22 01:00      0.00    580.42   1206112    510.54    137211     59201     66.90    154.10      9.80     71.62      0.00     13.55     12.96
05/22 02:00      0.00    580.53   1211458    511.15    149753     83534     66.45    156.90     11.40     70.74      0.00     13.58     12.96
05/22 03:00      0.00    580.65   1217290    512.79    156383    102960     66.58    157.40      9.90     68.00      0.00     13.58     12.96
05/22 04:00      0.00    580.81   1225066    513.15    169888    103321     66.94    159.90     11.20     62.47      0.00     13.58     12.96
05/22 05:00      0.00    580.89   1228954    514.17    176480    103584     66.72    155.50      8.20     61.06      0.00     13.58     13.10
05/22 06:00      0.00    580.98   1233328    515.17    181472    126727     66.51    152.90      7.50     61.67      0.00     13.55     12.96
05/22 07:00      0.00    581.07   1237807    516.07    178103    126985     66.11    159.70     10.00     63.30     12.20     13.55     12.96
05/22 08:00      0.00    581.15   1241815    517.32    188798    149992     66.94    160.20     10.10     62.91    124.80     13.55     12.97
05/22 09:00      0.00    581.20   1244320    518.68    192525    150254     68.99    152.30      6.20     67.70    224.30     13.55     12.96
05/22 10:00      0.00    581.25   1246825    519.69    192408    173793     70.45    153.80      5.10     72.60    233.20     13.54     12.96
05/22 11:00      0.00    581.29   1248829    520.11    189045    174039     72.97    156.20      7.00     75.25    433.30     13.58     12.96
05/22 12:00      0.00    581.29   1248829    521.53    196542    180597     78.30    152.10      6.80     72.33    805.80     13.58     12.96
05/22 13:00      0.00    581.26   1247326    522.15    199349    199861     81.88    150.90      8.60     66.39    899.00     13.59     12.96
05/22 14:00      0.00    581.29   1248829    522.55    203379    199861     82.53    150.60      8.80     65.79    617.30     13.55     12.96
05/22 15:00      0.00    581.32   1250332    522.74    209750    199951     82.58    155.10      8.30     68.72    411.60     13.55     12.96
05/22 16:00      0.00    581.35   1251835    522.92    214702    200253     82.96    159.90      7.50     69.97    274.80     13.59     12.96
05/22 17:00      0.00    581.37   1252837    523.10    216032    200328     84.72    158.70      7.20     65.07    352.80     13.56     12.96
05/22 18:00      0.00    581.38   1253338    523.18    214937    200373     83.52    160.60      8.70     67.59     39.90     13.55     12.96
05/22 19:00      0.00    581.42   1255342    523.31    211363    200448     82.89    160.90     11.00     68.47      2.00     13.55     12.96
05/22 20:00      0.00    581.44   1256344    523.40    212632    200538     83.05    159.00      9.60     67.48     14.90     13.54     12.96
05/22 21:00      0.00    581.44   1256344    523.42    211477    200568     82.47    160.40      9.40     66.60      0.00     13.55     12.96
05/22 22:00      0.00    581.47   1257847    523.52    210297    200613     81.45    161.80      6.30     68.15      0.00     13.58     12.96
05/22 23:00      0.00    581.47   1257847    523.52    204268    200658     80.51    158.90      5.40     69.01      0.00     13.55     12.96